createdAt,value
2022-10-01T00:01:20.108Z,97364.34
2022-10-01T00:05:23.559Z,97358.63
2022-10-01T00:09:27.419Z,97375.41
2022-10-01T00:13:33.277Z,97375.41
2022-10-01T00:17:36.962Z,97375.41
2022-10-01T00:21:39.953Z,97374.41
2022-10-01T00:25:44.714Z,97375.22
2022-10-01T00:29:49.398Z,97375.22
2022-10-01T00:33:54.300Z,97379.84
2022-10-01T00:37:57.271Z,97389.31
2022-10-01T00:42:00.770Z,97385.66
2022-10-01T00:46:09.677Z,97402.63
2022-10-01T00:50:18.060Z,97407.03
2022-10-01T00:54:25.462Z,97410.84
2022-10-01T01:02:47.593Z,97401.75
2022-10-01T01:06:55.978Z,97407.38
2022-10-01T01:11:08.563Z,97414.63
2022-10-01T01:15:19.424Z,97409.75
2022-10-01T01:19:40.348Z,97404.88
2022-10-01T01:24:20.113Z,97404.25
2022-10-01T01:28:32.300Z,97414.13
2022-10-01T01:32:46.518Z,97412.47
2022-10-01T01:36:56.937Z,97410.88
2022-10-01T01:41:02.861Z,97407.59
2022-10-01T01:45:11.695Z,97412.03
2022-10-01T01:49:17.123Z,97419.25
2022-10-01T01:53:20.791Z,97426.28
2022-10-01T01:57:24.447Z,97435.78
2022-10-01T02:01:38.265Z,97431.34
2022-10-01T02:05:45.352Z,97433.78
2022-10-01T02:09:55.531Z,97430.22
2022-10-01T02:14:18.813Z,97432.00
2022-10-01T02:18:30.154Z,97435.47
2022-10-01T02:22:40.850Z,97438.06
2022-10-01T02:26:50.034Z,97429.56
2022-10-01T02:30:56.483Z,97418.06
2022-10-01T02:35:02.875Z,97429.56
2022-10-01T02:39:08.915Z,97426.09
2022-10-01T02:43:16.962Z,97422.69
2022-10-01T02:47:25.560Z,97421.69
2022-10-01T02:51:41.046Z,97422.50
2022-10-01T02:55:46.560Z,97414.84
2022-10-01T02:59:49.836Z,97422.88
2022-10-01T03:03:54.448Z,97418.63
2022-10-01T03:07:58.831Z,97421.25
2022-10-01T03:12:03.435Z,97427.66
2022-10-01T03:16:06.499Z,97427.66
2022-10-01T03:20:10.730Z,97426.88
2022-10-01T03:24:15.138Z,97427.66
2022-10-01T03:28:18.275Z,97422.63
2022-10-01T03:32:21.880Z,97416.59
2022-10-01T03:36:26.027Z,97416.59
2022-10-01T03:40:33.298Z,97421.81
2022-10-01T03:44:36.814Z,97413.34
2022-10-01T03:48:39.738Z,97413.34
2022-10-01T03:52:47.790Z,97410.06
2022-10-01T03:56:52.921Z,97405.03
2022-10-01T04:00:56.172Z,97388.72
2022-10-01T04:04:59.635Z,97406.59
2022-10-01T04:09:02.723Z,97425.28
2022-10-01T04:13:07.962Z,97412.19
2022-10-01T04:17:11.011Z,97414.19
2022-10-01T04:21:17.231Z,97416.63
2022-10-01T04:25:20.345Z,97409.75
2022-10-01T04:29:25.672Z,97401.72
2022-10-01T04:33:28.598Z,97388.81
2022-10-01T04:37:32.394Z,97393.84
2022-10-01T04:41:35.696Z,97392.88
2022-10-01T04:45:41.227Z,97399.91
2022-10-01T04:49:44.266Z,97404.34
2022-10-01T04:53:47.776Z,97401.09
2022-10-01T04:57:50.976Z,97401.91
2022-10-01T05:01:55.832Z,97394.22
2022-10-01T05:05:58.864Z,97395.59
2022-10-01T05:10:02.622Z,97400.06
2022-10-01T05:14:05.717Z,97405.47
2022-10-01T05:18:10.561Z,97401.22
2022-10-01T05:22:13.608Z,97404.00
2022-10-01T05:26:17.173Z,97391.09
2022-10-01T05:30:24.676Z,97390.13
2022-10-01T05:34:28.990Z,97402.41
2022-10-01T05:38:33.587Z,97396.34
2022-10-01T05:42:36.760Z,97379.66
2022-10-01T05:46:42.484Z,97383.69
2022-10-01T05:50:46.815Z,97384.16
2022-10-01T05:54:50.625Z,97382.41
2022-10-01T05:58:53.625Z,97384.91
2022-10-01T06:02:58.456Z,97390.00
2022-10-01T06:07:03.406Z,97388.91
2022-10-01T06:11:06.674Z,97386.19
2022-10-01T06:15:10.798Z,97384.03
2022-10-01T06:19:14.359Z,97387.75
2022-10-01T06:23:18.906Z,97377.38
2022-10-01T06:27:22.324Z,97379.44
2022-10-01T06:31:25.405Z,97369.44
2022-10-01T06:35:29.005Z,97379.78
2022-10-01T06:39:33.507Z,97373.59
2022-10-01T06:43:36.866Z,97376.03
2022-10-01T06:47:39.833Z,97383.16
2022-10-01T06:52:00.576Z,97385.28
2022-10-01T06:56:09.346Z,97389.97
2022-10-01T07:00:14.337Z,97396.06
2022-10-01T07:04:17.384Z,97399.34
2022-10-01T07:08:21.540Z,97398.00
2022-10-01T07:12:26.551Z,97412.81
2022-10-01T07:16:30.097Z,97406.78
2022-10-01T07:20:36.069Z,97401.13
2022-10-01T07:24:40.001Z,97406.50
2022-10-01T07:28:45.071Z,97385.63
2022-10-01T07:32:48.548Z,97386.59
2022-10-01T07:36:51.645Z,97398.34
2022-10-01T07:40:56.230Z,97397.38
2022-10-01T07:45:00.702Z,97404.34
2022-10-01T07:49:04.366Z,97407.75
2022-10-01T07:53:08.487Z,97407.75
2022-10-01T07:57:12.059Z,97411.66
2022-10-01T08:01:17.280Z,97418.75
2022-10-01T08:05:23.720Z,97417.97
2022-10-01T08:09:27.286Z,97419.66
2022-10-01T08:13:30.281Z,97428.03
2022-10-01T08:17:35.655Z,97427.72
2022-10-01T08:21:38.684Z,97418.28
2022-10-01T08:25:43.266Z,97421.66
2022-10-01T08:29:47.028Z,97428.25
2022-10-01T08:33:52.078Z,97434.38
2022-10-01T08:37:57.291Z,97424.69
2022-10-01T08:42:10.005Z,97427.28
2022-10-01T08:46:17.334Z,97417.28
2022-10-01T08:50:33.670Z,97413.31
2022-10-01T08:54:42.917Z,97413.78
2022-10-01T08:58:52.180Z,97413.78
2022-10-01T09:02:58.728Z,97409.53
2022-10-01T09:07:15.782Z,97406.75
2022-10-01T09:11:37.949Z,97407.78
2022-10-01T09:15:49.099Z,97407.34
2022-10-01T09:20:04.298Z,97394.44
2022-10-01T09:24:16.075Z,97391.75
2022-10-01T09:28:22.672Z,97389.16
2022-10-01T09:32:32.370Z,97395.03
2022-10-01T09:36:40.576Z,97371.84
2022-10-01T09:40:51.771Z,97372.78
2022-10-01T09:44:55.328Z,97368.78
2022-10-01T09:49:07.203Z,97364.16
2022-10-01T09:53:15.676Z,97371.63
2022-10-01T09:57:27.411Z,97372.06
2022-10-01T10:01:44.266Z,97373.88
2022-10-01T10:05:49.887Z,97366.84
2022-10-01T10:09:53.664Z,97362.13
2022-10-01T10:14:01.520Z,97348.28
2022-10-01T10:18:09.085Z,97352.53
2022-10-01T10:22:14.714Z,97361.53
2022-10-01T10:26:22.139Z,97356.94
2022-10-01T10:30:27.736Z,97357.75
2022-10-01T10:34:33.967Z,97344.97
2022-10-01T10:38:37.117Z,97337.94
2022-10-01T10:42:48.372Z,97335.22
2022-10-01T10:46:55.082Z,97331.75
2022-10-01T10:51:02.808Z,97321.97
2022-10-01T10:55:22.444Z,97310.88
2022-10-01T10:59:26.161Z,97310.88
2022-10-01T11:03:33.332Z,97313.06
2022-10-01T11:07:37.113Z,97307.19
2022-10-01T11:11:51.431Z,97307.19
2022-10-01T11:16:15.303Z,97301.88
2022-10-01T11:20:34.493Z,97283.22
2022-10-01T11:25:01.176Z,97279.22
2022-10-01T11:29:18.412Z,97271.97
2022-10-01T11:33:31.788Z,97252.63
2022-10-01T11:38:05.740Z,97252.28
2022-10-01T11:42:13.791Z,97242.88
2022-10-01T11:46:24.376Z,97235.88
2022-10-01T11:50:32.743Z,97221.63
2022-10-01T11:54:51.226Z,97221.28
2022-10-01T11:59:03.365Z,97217.97
2022-10-01T12:03:14.036Z,97220.06
2022-10-01T12:07:23.521Z,97214.63
2022-10-01T12:11:33.679Z,97222.50
2022-10-01T12:15:42.825Z,97221.09
2022-10-01T12:19:51.524Z,97231.44
2022-10-01T12:23:59.669Z,97230.75
2022-10-01T12:28:10.843Z,97233.84
2022-10-01T12:32:23.701Z,97236.16
2022-10-01T12:36:37.058Z,97243.25
2022-10-01T12:40:48.114Z,97253.56
2022-10-01T12:45:06.770Z,97249.59
2022-10-01T12:49:22.934Z,97248.06
2022-10-01T12:53:36.015Z,97253.31
2022-10-01T12:57:47.969Z,97258.16
2022-10-01T13:02:11.652Z,97252.19
2022-10-01T13:06:30.573Z,97260.78
2022-10-01T13:10:54.188Z,97267.59
2022-10-01T13:14:58.277Z,97271.91
2022-10-01T13:19:09.466Z,97279.91
2022-10-01T13:23:22.118Z,97284.88
2022-10-01T13:27:30.948Z,97277.91
2022-10-01T13:31:38.704Z,97272.69
2022-10-01T13:35:54.247Z,97296.00
2022-10-01T13:39:58.827Z,97292.06
2022-10-01T13:44:21.855Z,97285.88
2022-10-01T13:48:29.357Z,97272.50
2022-10-01T13:52:35.263Z,97275.19
2022-10-01T13:56:39.310Z,97273.63
2022-10-01T14:00:50.048Z,97266.94
2022-10-01T14:04:53.603Z,97290.97
2022-10-01T14:09:07.209Z,97290.66
2022-10-01T14:13:24.944Z,97289.97
2022-10-01T14:17:31.757Z,97295.75
2022-10-01T14:21:48.468Z,97301.06
2022-10-01T14:26:00.862Z,97300.72
2022-10-01T14:30:11.720Z,97297.34
2022-10-01T14:34:36.198Z,97300.00
2022-10-01T14:38:39.234Z,97303.84
2022-10-01T14:42:44.141Z,97311.97
2022-10-01T14:46:47.375Z,97319.03
2022-10-01T14:50:57.063Z,97325.69
2022-10-01T14:55:03.613Z,97343.50
2022-10-01T14:59:10.418Z,97336.44
2022-10-01T15:03:16.413Z,97359.91
2022-10-01T15:07:20.586Z,97353.56
2022-10-01T15:11:25.484Z,97325.91
2022-10-01T15:15:41.510Z,97301.00
2022-10-01T15:19:48.408Z,97290.69
2022-10-01T15:23:51.922Z,97295.34
2022-10-01T15:27:57.156Z,97317.53
2022-10-01T15:32:03.127Z,97310.44
2022-10-01T15:36:09.096Z,97303.94
2022-10-01T15:40:24.499Z,97314.88
2022-10-01T15:44:47.495Z,97303.13
2022-10-01T15:49:13.297Z,97319.25
2022-10-01T15:53:21.203Z,97315.59
2022-10-01T15:57:25.939Z,97319.78
2022-10-01T16:01:39.192Z,97327.28
2022-10-01T16:05:48.964Z,97338.75
2022-10-01T16:09:59.251Z,97329.47
2022-10-01T16:14:23.152Z,97325.22
2022-10-01T16:18:26.248Z,97327.22
2022-10-01T16:22:33.539Z,97324.59
2022-10-01T16:26:39.622Z,97326.44
2022-10-01T16:30:42.916Z,97333.47
2022-10-01T16:34:46.457Z,97324.38
2022-10-01T16:38:51.554Z,97327.22
2022-10-01T16:42:55.699Z,97341.34
2022-10-01T16:46:58.711Z,97338.72
2022-10-01T16:51:02.023Z,97342.97
2022-10-01T16:55:18.147Z,97344.56
2022-10-01T16:59:22.736Z,97341.34
2022-10-01T17:03:27.473Z,97341.34
2022-10-01T17:07:30.999Z,97342.19
2022-10-01T17:11:35.736Z,97343.97
2022-10-01T17:15:39.683Z,97341.34
2022-10-01T17:19:43.145Z,97350.25
2022-10-01T17:23:49.986Z,97350.63
2022-10-01T17:27:57.081Z,97346.75
2022-10-01T17:32:00.529Z,97356.25
2022-10-01T17:36:07.962Z,97359.47
2022-10-01T17:40:12.690Z,97361.88
2022-10-01T17:44:17.617Z,97363.09
2022-10-01T17:48:21.985Z,97375.13
2022-10-01T17:52:25.668Z,97370.88
2022-10-01T17:56:30.490Z,97367.81
2022-10-01T18:00:35.450Z,97372.31
2022-10-01T18:04:43.299Z,97372.69
2022-10-01T18:09:01.721Z,97381.41
2022-10-01T18:13:05.216Z,97385.03
2022-10-01T18:17:10.355Z,97391.88
2022-10-01T18:21:15.771Z,97403.41
2022-10-01T18:25:20.492Z,97401.00
2022-10-01T18:29:26.356Z,97408.66
2022-10-01T18:33:31.467Z,97394.13
2022-10-01T18:37:40.042Z,97394.75
2022-10-01T18:41:44.115Z,97395.16
2022-10-01T18:46:02.118Z,97404.88
2022-10-01T18:50:25.705Z,97405.84
2022-10-01T18:54:46.878Z,97423.38
2022-10-01T18:59:16.713Z,97431.03
2022-10-01T19:03:43.861Z,97423.94
2022-10-01T19:08:01.243Z,97437.31
2022-10-01T19:12:19.953Z,97443.00
2022-10-01T19:16:39.173Z,97438.56
2022-10-01T19:20:51.711Z,97448.28
2022-10-01T19:25:17.374Z,97439.44
2022-10-01T19:29:37.190Z,97447.53
2022-10-01T19:33:47.365Z,97443.09
2022-10-01T19:37:53.706Z,97442.91
2022-10-01T19:42:03.032Z,97441.91
2022-10-01T19:46:11.671Z,97456.91
2022-10-01T19:50:21.744Z,97463.78
2022-10-01T19:54:29.860Z,97470.63
2022-10-01T19:58:35.117Z,97494.31
2022-10-01T20:02:47.234Z,97489.47
2022-10-01T20:06:51.668Z,97499.59
2022-10-01T20:10:57.483Z,97496.97
2022-10-01T20:15:16.100Z,97498.41
2022-10-01T20:19:30.438Z,97508.69
2022-10-01T20:23:47.472Z,97510.31
2022-10-01T20:28:01.215Z,97505.09
2022-10-01T20:32:14.760Z,97510.13
2022-10-01T20:36:22.684Z,97524.06
2022-10-01T20:40:31.321Z,97519.19
2022-10-01T20:44:38.361Z,97510.09
2022-10-01T20:48:45.529Z,97528.06
2022-10-01T20:53:02.445Z,97534.34
2022-10-01T20:57:11.602Z,97530.09
2022-10-01T21:01:21.988Z,97536.97
2022-10-01T21:05:30.870Z,97541.38
2022-10-01T21:09:38.327Z,97532.91
2022-10-01T21:13:49.650Z,97548.03
2022-10-01T21:18:01.405Z,97556.72
2022-10-01T21:22:18.090Z,97553.84
2022-10-01T21:26:36.191Z,97555.06
2022-10-01T21:30:53.187Z,97559.84
2022-10-01T21:35:10.895Z,97567.28
2022-10-01T21:39:26.478Z,97573.34
2022-10-01T21:43:43.361Z,97579.16
2022-10-01T21:48:16.875Z,97575.88
2022-10-01T21:52:31.155Z,97601.69
2022-10-01T21:56:59.375Z,97609.78
2022-10-01T22:01:12.682Z,97608.34
2022-10-01T22:05:26.505Z,97625.91
2022-10-01T22:09:37.539Z,97618.22
2022-10-01T22:13:50.468Z,97623.03
2022-10-01T22:17:55.996Z,97629.47
2022-10-01T22:22:05.168Z,97627.38
2022-10-01T22:26:17.658Z,97641.06
2022-10-01T22:30:23.758Z,97641.44
2022-10-01T22:34:33.486Z,97643.63
2022-10-01T22:38:43.777Z,97643.81
2022-10-01T22:42:52.713Z,97651.03
2022-10-01T22:47:09.027Z,97651.03
2022-10-01T22:51:25.404Z,97650.44
2022-10-01T22:55:39.316Z,97660.09
2022-10-01T22:59:53.242Z,97659.84
2022-10-01T23:04:11.102Z,97667.50
2022-10-01T23:08:23.028Z,97666.25
2022-10-01T23:12:39.413Z,97676.75
2022-10-01T23:16:49.038Z,97680.19
2022-10-01T23:21:07.287Z,97694.38
2022-10-01T23:25:31.042Z,97695.19
2022-10-01T23:29:50.274Z,97709.09
2022-10-01T23:34:02.792Z,97723.88
2022-10-01T23:38:25.093Z,97724.22
2022-10-01T23:42:35.832Z,97732.28
2022-10-01T23:46:43.958Z,97737.88
2022-10-01T23:50:54.866Z,97743.31
2022-10-01T23:55:18.821Z,97744.94
2022-10-01T23:59:28.978Z,97756.25
